createdAt,value
2018-08-11T00:01:37.022Z,46.90
2018-08-11T00:04:05.386Z,47.00
2018-08-11T00:06:33.463Z,46.90
2018-08-11T00:09:01.527Z,47.00
2018-08-11T00:11:29.830Z,47.00
2018-08-11T00:13:57.903Z,47.00
2018-08-11T00:16:25.990Z,47.00
2018-08-11T00:18:54.434Z,47.00
2018-08-11T00:21:22.499Z,47.10
2018-08-11T00:23:50.579Z,47.10
2018-08-11T00:26:18.834Z,47.10
2018-08-11T00:28:46.915Z,47.10
2018-08-11T00:31:14.988Z,47.10
2018-08-11T00:33:43.066Z,47.10
2018-08-11T00:36:11.145Z,47.10
2018-08-11T00:38:39.246Z,47.10
2018-08-11T00:41:07.315Z,47.20
2018-08-11T00:43:35.402Z,47.20
2018-08-11T00:46:03.475Z,47.20
2018-08-11T00:48:31.962Z,47.30
2018-08-11T00:51:00.267Z,47.30
2018-08-11T00:53:28.339Z,48.00
2018-08-11T00:55:56.407Z,47.30
2018-08-11T00:58:24.491Z,47.30
2018-08-11T01:00:52.566Z,47.30
2018-08-11T01:03:20.646Z,47.30
2018-08-11T01:05:48.710Z,47.30
2018-08-11T01:08:16.786Z,47.30
2018-08-11T01:10:44.862Z,47.30
2018-08-11T01:13:12.930Z,47.40
2018-08-11T01:15:41.019Z,47.40
2018-08-11T01:18:09.094Z,47.40
2018-08-11T01:20:37.155Z,47.30
2018-08-11T01:23:05.228Z,47.40
2018-08-11T01:25:33.626Z,47.40
2018-08-11T01:28:01.703Z,47.40
2018-08-11T01:30:29.775Z,47.40
2018-08-11T01:32:57.854Z,47.50
2018-08-11T01:35:25.926Z,47.50
2018-08-11T01:37:53.993Z,47.50
2018-08-11T01:40:22.071Z,47.50
2018-08-11T01:42:50.131Z,47.50
2018-08-11T01:45:18.825Z,47.50
2018-08-11T01:47:46.894Z,47.50
2018-08-11T01:50:15.643Z,47.50
2018-08-11T01:52:44.831Z,47.50
2018-08-11T01:55:14.139Z,47.70
2018-08-11T01:57:42.336Z,47.60
2018-08-11T02:00:12.128Z,47.60
2018-08-11T02:02:40.593Z,47.60
2018-08-11T02:05:09.594Z,47.60
2018-08-11T02:07:38.370Z,47.70
2018-08-11T02:10:08.238Z,47.70
2018-08-11T02:12:36.415Z,47.70
2018-08-11T02:15:06.827Z,47.70
2018-08-11T02:17:34.927Z,47.70
2018-08-11T02:20:03.002Z,47.70
2018-08-11T02:22:31.124Z,47.70
2018-08-11T02:24:59.151Z,47.70
2018-08-11T02:27:27.218Z,47.70
2018-08-11T02:29:55.555Z,47.70
2018-08-11T02:32:23.653Z,47.80
2018-08-11T02:34:51.733Z,47.70
2018-08-11T02:37:19.823Z,47.80
2018-08-11T02:39:47.914Z,47.80
2018-08-11T02:42:15.998Z,47.80
2018-08-11T02:44:44.095Z,47.80
2018-08-11T02:47:12.463Z,48.00
2018-08-11T02:49:40.551Z,47.90
2018-08-11T02:52:08.632Z,47.90
2018-08-11T02:54:36.719Z,47.90
2018-08-11T02:57:05.064Z,48.00
2018-08-11T02:59:33.153Z,48.00
2018-08-11T03:02:01.224Z,48.00
2018-08-11T03:04:29.311Z,48.00
2018-08-11T03:06:57.386Z,48.00
2018-08-11T03:09:25.491Z,48.00
2018-08-11T03:11:53.579Z,48.00
2018-08-11T03:14:21.674Z,48.00
2018-08-11T03:16:49.760Z,48.00
2018-08-11T03:19:17.840Z,48.00
2018-08-11T03:21:45.923Z,47.90
2018-08-11T03:24:14.002Z,48.00
2018-08-11T03:26:42.079Z,48.00
2018-08-11T03:29:10.163Z,48.00
2018-08-11T03:31:38.264Z,48.10
2018-08-11T03:34:06.346Z,48.10
2018-08-11T03:36:34.475Z,48.10
2018-08-11T03:39:02.506Z,48.10
2018-08-11T03:41:30.595Z,48.10
2018-08-11T03:43:58.670Z,48.10
2018-08-11T03:46:26.787Z,47.60
2018-08-11T03:48:54.854Z,48.20
2018-08-11T03:51:22.946Z,48.20
2018-08-11T03:53:51.042Z,48.20
2018-08-11T03:56:19.138Z,48.20
2018-08-11T03:58:47.224Z,48.20
2018-08-11T04:01:15.311Z,48.20
2018-08-11T04:03:43.380Z,48.20
2018-08-11T04:06:11.466Z,48.20
2018-08-11T04:08:39.554Z,48.30
2018-08-11T04:11:07.639Z,48.20
2018-08-11T04:13:35.752Z,48.20
2018-08-11T04:16:03.846Z,48.70
2018-08-11T04:18:31.932Z,48.30
2018-08-11T04:21:00.028Z,48.30
2018-08-11T04:23:28.291Z,48.30
2018-08-11T04:25:56.378Z,47.80
2018-08-11T04:28:24.463Z,48.30
2018-08-11T04:30:52.565Z,48.40
2018-08-11T04:33:20.934Z,48.30
2018-08-11T04:35:49.027Z,48.40
2018-08-11T04:38:17.142Z,48.40
2018-08-11T04:40:45.252Z,48.40
2018-08-11T04:43:13.336Z,48.40
2018-08-11T04:45:41.414Z,48.40
2018-08-11T04:48:09.503Z,48.40
2018-08-11T04:50:37.594Z,48.40
2018-08-11T04:53:05.698Z,48.40
2018-08-11T04:55:33.787Z,48.50
2018-08-11T04:58:01.871Z,48.40
2018-08-11T05:00:30.012Z,48.50
2018-08-11T05:02:58.091Z,48.50
2018-08-11T05:05:26.175Z,48.50
2018-08-11T05:07:54.262Z,48.50
2018-08-11T05:10:22.355Z,48.50
2018-08-11T05:12:50.446Z,48.50
2018-08-11T05:15:18.539Z,48.30
2018-08-11T05:17:46.747Z,48.40
2018-08-11T05:20:14.848Z,48.50
2018-08-11T05:22:42.931Z,48.50
2018-08-11T05:25:11.015Z,48.50
2018-08-11T05:27:39.111Z,48.50
2018-08-11T05:30:08.239Z,48.50
2018-08-11T05:32:36.630Z,48.50
2018-08-11T05:35:05.244Z,48.50
2018-08-11T05:37:33.570Z,48.50
2018-08-11T05:40:01.654Z,48.50
2018-08-11T05:42:29.747Z,48.50
2018-08-11T05:44:57.830Z,49.20
2018-08-11T05:47:25.914Z,48.50
2018-08-11T05:49:54.238Z,48.50
2018-08-11T05:52:22.531Z,48.50
2018-08-11T05:54:50.605Z,48.60
2018-08-11T05:57:18.710Z,48.60
2018-08-11T05:59:46.801Z,48.70
2018-08-11T06:02:14.905Z,48.60
2018-08-11T06:04:42.974Z,48.60
2018-08-11T06:07:11.058Z,48.60
2018-08-11T06:09:39.143Z,48.60
2018-08-11T06:12:07.235Z,48.60
2018-08-11T06:14:35.306Z,48.60
2018-08-11T06:17:03.404Z,48.60
2018-08-11T06:19:31.491Z,48.60
2018-08-11T06:21:59.578Z,48.60
2018-08-11T06:24:27.650Z,48.50
2018-08-11T06:26:55.736Z,48.60
2018-08-11T06:29:23.810Z,48.60
2018-08-11T06:31:52.026Z,48.60
2018-08-11T06:34:20.000Z,48.50
2018-08-11T06:36:48.090Z,48.50
2018-08-11T06:39:16.171Z,48.50
2018-08-11T06:41:44.330Z,48.60
2018-08-11T06:44:13.219Z,48.50
2018-08-11T06:46:41.324Z,48.50
2018-08-11T06:49:09.390Z,48.50
2018-08-11T06:51:37.838Z,48.60
2018-08-11T06:54:06.027Z,48.50
2018-08-11T06:56:34.094Z,48.50
2018-08-11T06:59:02.176Z,47.90
2018-08-11T07:01:30.542Z,48.50
2018-08-11T07:03:58.676Z,48.50
2018-08-11T07:06:26.712Z,48.40
2018-08-11T07:08:54.795Z,48.50
2018-08-11T07:11:22.910Z,48.50
2018-08-11T07:13:51.011Z,48.40
2018-08-11T07:16:19.107Z,48.40
2018-08-11T07:18:47.330Z,48.40
2018-08-11T07:21:15.482Z,48.50
2018-08-11T07:23:43.494Z,48.50
2018-08-11T07:26:11.599Z,48.50
2018-08-11T07:28:39.691Z,48.40
2018-08-11T07:31:07.889Z,48.40
2018-08-11T07:33:35.970Z,48.40
2018-08-11T07:36:04.126Z,49.10
2018-08-11T07:38:32.152Z,48.50
2018-08-11T07:41:00.226Z,48.40
2018-08-11T07:43:28.547Z,48.40
2018-08-11T07:45:56.494Z,48.40
2018-08-11T07:48:24.588Z,48.40
2018-08-11T07:50:52.697Z,48.40
2018-08-11T07:53:21.039Z,48.90
2018-08-11T07:55:49.150Z,48.40
2018-08-11T07:58:17.219Z,48.40
2018-08-11T08:00:45.298Z,48.40
2018-08-11T08:03:13.438Z,48.40
2018-08-11T08:05:41.796Z,48.40
2018-08-11T08:08:09.901Z,48.40
2018-08-11T08:10:37.975Z,48.40
2018-08-11T08:13:06.190Z,48.40
2018-08-11T08:15:34.278Z,48.40
2018-08-11T08:18:02.375Z,48.40
2018-08-11T08:20:30.462Z,48.40
2018-08-11T08:22:58.555Z,48.40
2018-08-11T08:25:26.642Z,48.30
2018-08-11T08:27:54.722Z,48.30
2018-08-11T08:30:22.798Z,48.40
2018-08-11T08:32:51.709Z,48.40
2018-08-11T08:35:19.787Z,48.40
2018-08-11T08:37:47.879Z,48.30
2018-08-11T08:40:15.969Z,48.30
2018-08-11T08:42:44.047Z,48.30
2018-08-11T08:45:12.143Z,48.40
2018-08-11T08:47:40.228Z,48.40
2018-08-11T08:50:08.503Z,48.40
2018-08-11T08:52:36.582Z,48.40
2018-08-11T08:55:04.691Z,48.40
2018-08-11T08:57:32.902Z,48.40
2018-08-11T09:00:01.003Z,48.30
2018-08-11T09:02:29.074Z,48.40
2018-08-11T09:04:57.187Z,48.40
2018-08-11T09:07:25.243Z,48.40
2018-08-11T09:09:53.334Z,48.30
2018-08-11T09:12:21.411Z,48.30
2018-08-11T09:14:49.571Z,48.30
2018-08-11T09:17:17.618Z,48.30
2018-08-11T09:19:45.711Z,48.40
2018-08-11T09:22:13.792Z,48.40
2018-08-11T09:24:41.889Z,48.40
2018-08-11T09:27:09.972Z,48.40
2018-08-11T09:29:38.062Z,48.40
2018-08-11T09:32:06.156Z,48.40
2018-08-11T09:34:34.239Z,48.40
2018-08-11T09:37:02.322Z,48.40
2018-08-11T09:39:30.406Z,48.40
2018-08-11T09:41:58.490Z,48.40
2018-08-11T09:44:26.590Z,48.40
2018-08-11T09:46:54.667Z,48.40
2018-08-11T09:49:22.747Z,48.40
2018-08-11T09:51:51.209Z,48.40
2018-08-11T09:54:19.302Z,48.40
2018-08-11T09:56:47.374Z,48.40
2018-08-11T09:59:15.458Z,48.40
2018-08-11T10:01:45.810Z,48.50
2018-08-11T10:04:14.290Z,48.50
2018-08-11T10:06:42.459Z,48.50
2018-08-11T10:09:11.975Z,48.50
2018-08-11T10:11:40.071Z,48.50
2018-08-11T10:14:08.182Z,48.50
2018-08-11T10:16:36.264Z,48.50
2018-08-11T10:19:04.403Z,48.50
2018-08-11T10:21:32.483Z,48.50
2018-08-11T10:24:00.566Z,48.50
2018-08-11T10:26:28.642Z,48.50
2018-08-11T10:28:56.723Z,48.40
2018-08-11T10:31:24.806Z,48.50
2018-08-11T10:33:52.882Z,48.50
2018-08-11T10:36:20.974Z,48.50
2018-08-11T10:38:49.054Z,48.50
2018-08-11T10:41:17.151Z,48.50
2018-08-11T10:43:45.516Z,48.50
2018-08-11T10:46:13.618Z,48.50
2018-08-11T10:48:41.694Z,48.50
2018-08-11T10:51:09.782Z,48.50
2018-08-11T10:53:37.854Z,48.50
2018-08-11T10:56:05.995Z,48.90
2018-08-11T10:58:34.039Z,48.50
2018-08-11T11:01:02.129Z,48.50
2018-08-11T11:03:30.210Z,48.50
2018-08-11T11:05:58.298Z,48.50
2018-08-11T11:08:26.420Z,48.50
2018-08-11T11:10:54.467Z,48.50
2018-08-11T11:13:22.578Z,48.60
2018-08-11T11:15:50.687Z,48.50
2018-08-11T11:18:18.775Z,48.50
2018-08-11T11:20:46.923Z,48.60
2018-08-11T11:23:14.954Z,48.60
2018-08-11T11:25:43.035Z,48.50
2018-08-11T11:28:11.210Z,48.60
2018-08-11T11:30:39.302Z,48.60
2018-08-11T11:33:07.726Z,48.70
2018-08-11T11:35:35.821Z,48.70
2018-08-11T11:38:04.295Z,48.70
2018-08-11T11:40:32.486Z,48.60
2018-08-11T11:43:00.574Z,48.70
2018-08-11T11:45:28.782Z,48.60
2018-08-11T11:47:57.338Z,48.60
2018-08-11T11:50:25.438Z,48.70
2018-08-11T11:52:53.514Z,48.70
2018-08-11T11:55:21.765Z,48.60
2018-08-11T11:57:49.835Z,48.70
2018-08-11T12:00:17.922Z,48.70
2018-08-11T12:02:46.003Z,48.70
2018-08-11T12:05:14.088Z,48.60
2018-08-11T12:07:42.282Z,48.70
2018-08-11T12:10:10.371Z,48.70
2018-08-11T12:12:38.449Z,48.60
2018-08-11T12:15:06.783Z,48.70
2018-08-11T12:17:35.875Z,48.60
2018-08-11T12:20:04.558Z,48.60
2018-08-11T12:22:32.643Z,48.70
2018-08-11T12:25:00.727Z,48.60
2018-08-11T12:27:28.826Z,48.70
2018-08-11T12:29:56.899Z,48.70
2018-08-11T12:32:24.983Z,48.70
2018-08-11T12:34:53.064Z,48.70
2018-08-11T12:37:21.151Z,48.90
2018-08-11T12:39:49.225Z,48.80
2018-08-11T12:42:17.310Z,48.80
2018-08-11T12:44:45.391Z,48.70
2018-08-11T12:47:13.479Z,48.70
2018-08-11T12:49:41.562Z,48.60
2018-08-11T12:52:09.643Z,48.80
2018-08-11T12:54:37.722Z,48.80
2018-08-11T12:57:05.815Z,48.90
2018-08-11T12:59:34.010Z,48.90
2018-08-11T13:02:02.098Z,48.90
2018-08-11T13:04:30.195Z,48.90
2018-08-11T13:06:58.312Z,48.80
2018-08-11T13:09:26.378Z,48.80
2018-08-11T13:11:54.467Z,48.80
2018-08-11T13:14:22.562Z,48.80
2018-08-11T13:16:50.654Z,48.80
2018-08-11T13:19:18.739Z,48.80
2018-08-11T13:21:46.827Z,48.80
2018-08-11T13:24:14.910Z,48.80
2018-08-11T13:26:43.001Z,48.80
2018-08-11T13:29:11.090Z,48.80
2018-08-11T13:31:39.178Z,48.80
2018-08-11T13:34:07.267Z,48.80
2018-08-11T13:36:35.386Z,48.90
2018-08-11T13:39:04.506Z,48.80
2018-08-11T13:41:43.494Z,48.90
2018-08-11T13:44:11.578Z,49.10
2018-08-11T13:46:40.078Z,48.80
2018-08-11T13:49:08.863Z,48.80
2018-08-11T13:51:37.451Z,48.80
2018-08-11T13:54:06.130Z,48.80
2018-08-11T13:56:34.369Z,48.70
2018-08-11T13:59:02.450Z,48.70
2018-08-11T14:01:30.632Z,48.80
2018-08-11T14:03:58.630Z,48.80
2018-08-11T14:06:26.718Z,49.10
2018-08-11T14:08:54.794Z,48.90
2018-08-11T14:11:22.870Z,48.80
2018-08-11T14:13:51.107Z,48.90
2018-08-11T14:18:53.790Z,49.50
2018-08-11T14:21:21.872Z,48.90
2018-08-11T14:23:49.952Z,48.90
2018-08-11T14:26:18.038Z,48.90
2018-08-11T14:28:46.118Z,49.00
2018-08-11T14:31:14.218Z,49.00
2018-08-11T14:33:42.304Z,48.90
2018-08-11T14:36:10.385Z,48.90
2018-08-11T14:38:38.486Z,48.90
2018-08-11T14:41:06.539Z,48.90
2018-08-11T14:43:34.622Z,48.90
2018-08-11T14:46:02.713Z,49.50
2018-08-11T14:48:30.799Z,48.90
2018-08-11T14:50:58.890Z,48.80
2018-08-11T14:53:26.974Z,48.80
2018-08-11T14:55:55.075Z,48.80
2018-08-11T14:58:23.161Z,49.40
2018-08-11T15:00:51.239Z,48.80
2018-08-11T15:03:19.323Z,48.80
2018-08-11T15:05:47.397Z,48.80
2018-08-11T15:08:15.492Z,48.80
2018-08-11T15:10:43.581Z,48.90
2018-08-11T15:13:12.151Z,48.90
2018-08-11T15:15:40.234Z,48.90
2018-08-11T15:18:08.339Z,49.00
2018-08-11T15:20:36.424Z,48.90
2018-08-11T15:23:04.504Z,48.90
2018-08-11T15:25:32.578Z,48.90
2018-08-11T15:28:00.699Z,48.90
2018-08-11T15:30:28.755Z,49.00
2018-08-11T15:32:56.854Z,49.00
2018-08-11T15:35:24.940Z,49.00
2018-08-11T15:37:53.025Z,49.00
2018-08-11T15:40:21.105Z,49.00
2018-08-11T15:42:49.190Z,49.00
2018-08-11T15:45:17.258Z,49.00
2018-08-11T15:47:45.340Z,49.00
2018-08-11T15:50:13.414Z,49.00
2018-08-11T15:52:41.493Z,49.00
2018-08-11T15:55:09.568Z,49.30
2018-08-11T15:57:37.650Z,49.10
2018-08-11T16:00:06.114Z,49.10
2018-08-11T16:02:34.199Z,49.80
2018-08-11T16:05:02.299Z,49.10
2018-08-11T16:07:30.670Z,49.40
2018-08-11T16:09:58.758Z,49.10
2018-08-11T16:12:26.838Z,49.10
2018-08-11T16:14:54.924Z,49.10
2018-08-11T16:17:23.015Z,49.10
2018-08-11T16:19:51.098Z,49.10
2018-08-11T16:22:19.582Z,49.10
2018-08-11T16:24:47.666Z,49.10
2018-08-11T16:27:15.743Z,49.10
2018-08-11T16:29:43.864Z,49.10
2018-08-11T16:32:11.950Z,49.10
2018-08-11T16:34:40.047Z,49.20
2018-08-11T16:37:08.118Z,49.20
2018-08-11T16:39:36.207Z,49.20
2018-08-11T16:42:04.329Z,49.20
2018-08-11T16:44:32.387Z,49.10
2018-08-11T16:47:00.467Z,49.20
2018-08-11T16:49:28.546Z,49.20
2018-08-11T16:51:56.627Z,49.20
2018-08-11T16:54:24.715Z,49.20
2018-08-11T16:56:52.802Z,49.20
2018-08-11T16:59:20.935Z,49.20
2018-08-11T17:01:49.200Z,49.20
2018-08-11T17:04:17.283Z,49.20
2018-08-11T17:06:45.367Z,49.20
2018-08-11T17:09:13.465Z,49.20
2018-08-11T17:11:41.584Z,49.30
2018-08-11T17:14:09.675Z,49.20
2018-08-11T17:16:38.130Z,49.30
2018-08-11T17:19:06.273Z,49.20
2018-08-11T17:21:34.359Z,49.20
2018-08-11T17:24:02.463Z,49.20
2018-08-11T17:26:30.721Z,49.20
2018-08-11T17:28:58.819Z,49.20
2018-08-11T17:31:26.910Z,49.20
2018-08-11T17:33:55.254Z,49.20
2018-08-11T17:36:23.339Z,49.20
2018-08-11T17:38:51.452Z,49.30
2018-08-11T17:41:19.754Z,49.20
2018-08-11T17:43:47.943Z,49.20
2018-08-11T17:46:16.292Z,49.20
2018-08-11T17:48:44.436Z,49.20
2018-08-11T17:51:12.515Z,49.30
2018-08-11T17:53:40.598Z,49.30
2018-08-11T17:56:08.850Z,49.30
2018-08-11T17:58:36.938Z,49.30
2018-08-11T18:01:05.103Z,49.20
2018-08-11T18:03:33.182Z,49.20
2018-08-11T18:06:01.266Z,49.20
2018-08-11T18:08:29.348Z,49.20
2018-08-11T18:10:57.463Z,49.20
2018-08-11T18:13:25.547Z,49.20
2018-08-11T18:15:53.631Z,49.30
2018-08-11T18:18:21.714Z,49.20
2018-08-11T18:20:49.807Z,49.30
2018-08-11T18:23:17.878Z,49.30
2018-08-11T18:25:45.959Z,49.30
2018-08-11T18:28:14.030Z,49.30
2018-08-11T18:30:42.138Z,49.30
2018-08-11T18:33:10.214Z,49.40
2018-08-11T18:35:38.438Z,49.40
2018-08-11T18:38:06.519Z,49.30
2018-08-11T18:40:34.602Z,49.30
2018-08-11T18:43:02.674Z,49.70
2018-08-11T18:45:30.790Z,49.40
2018-08-11T18:47:58.874Z,49.30
2018-08-11T18:50:26.970Z,49.30
2018-08-11T18:52:55.039Z,49.40
2018-08-11T18:55:23.130Z,49.40
2018-08-11T18:57:51.233Z,49.40
2018-08-11T19:00:19.367Z,49.40
2018-08-11T19:02:47.412Z,49.40
2018-08-11T19:05:15.502Z,49.40
2018-08-11T19:07:43.587Z,49.40
2018-08-11T19:10:11.837Z,49.40
2018-08-11T19:12:40.206Z,49.40
2018-08-11T19:15:11.873Z,49.40
2018-08-11T19:17:40.187Z,49.40
2018-08-11T19:20:10.502Z,49.80
2018-08-11T19:22:38.718Z,49.50
2018-08-11T19:25:07.530Z,49.40
2018-08-11T19:27:35.642Z,49.40
2018-08-11T19:30:04.267Z,49.50
2018-08-11T19:32:32.358Z,49.50
2018-08-11T19:35:00.438Z,49.50
2018-08-11T19:37:28.534Z,49.40
2018-08-11T19:39:56.615Z,49.50
2018-08-11T19:42:24.838Z,49.50
2018-08-11T19:44:52.922Z,49.40
2018-08-11T19:47:21.002Z,50.10
2018-08-11T19:49:49.347Z,49.50
2018-08-11T19:52:17.435Z,49.50
2018-08-11T19:54:45.511Z,49.50
2018-08-11T19:57:13.590Z,49.80
2018-08-11T19:59:41.670Z,49.50
2018-08-11T20:02:09.800Z,49.50
2018-08-11T20:04:37.853Z,49.60
2018-08-11T20:07:06.048Z,49.70
2018-08-11T20:09:34.427Z,48.90
2018-08-11T20:12:02.513Z,48.50
2018-08-11T20:14:30.622Z,48.60
2018-08-11T20:16:58.714Z,48.70
2018-08-11T20:19:26.909Z,48.70
2018-08-11T20:21:54.879Z,48.70
2018-08-11T20:24:22.958Z,48.70
2018-08-11T20:26:51.038Z,48.70
2018-08-11T20:29:19.110Z,48.70
2018-08-11T20:31:47.206Z,48.80
2018-08-11T20:34:15.287Z,48.80
2018-08-11T20:36:43.378Z,48.90
2018-08-11T20:39:13.422Z,48.90
2018-08-11T20:41:41.506Z,48.90
2018-08-11T20:44:09.586Z,48.90
2018-08-11T20:46:37.683Z,48.90
2018-08-11T20:49:05.863Z,48.90
2018-08-11T20:51:33.967Z,48.90
2018-08-11T20:54:02.039Z,48.90
2018-08-11T20:56:30.133Z,49.00
2018-08-11T20:58:58.207Z,49.00
2018-08-11T21:01:26.298Z,49.10
2018-08-11T21:03:54.391Z,49.00
2018-08-11T21:06:22.470Z,49.00
2018-08-11T21:08:50.550Z,49.10
2018-08-11T21:11:18.670Z,49.10
2018-08-11T21:13:46.755Z,49.10
2018-08-11T21:16:14.850Z,49.10
2018-08-11T21:18:42.950Z,49.10
2018-08-11T21:21:11.039Z,49.10
2018-08-11T21:23:39.155Z,49.10
2018-08-11T21:26:07.231Z,49.70
2018-08-11T21:28:35.322Z,49.10
2018-08-11T21:31:03.432Z,49.20
2018-08-11T21:33:31.527Z,49.10
2018-08-11T21:35:59.608Z,49.20
2018-08-11T21:38:27.695Z,49.20
2018-08-11T21:40:55.778Z,49.20
2018-08-11T21:43:23.879Z,49.10
2018-08-11T21:45:51.964Z,49.10
2018-08-11T21:48:20.050Z,49.20
2018-08-11T21:50:48.136Z,49.20
2018-08-11T21:53:16.222Z,49.10
2018-08-11T21:55:44.312Z,49.10
2018-08-11T21:58:12.403Z,49.20
2018-08-11T22:00:40.501Z,49.20
2018-08-11T22:03:08.842Z,49.20
2018-08-11T22:05:36.933Z,49.20
2018-08-11T22:08:05.020Z,48.70
2018-08-11T22:10:33.094Z,49.20
2018-08-11T22:13:01.196Z,49.20
2018-08-11T22:15:29.274Z,49.20
2018-08-11T22:17:57.658Z,49.20
2018-08-11T22:20:25.749Z,49.20
2018-08-11T22:22:54.102Z,49.20
2018-08-11T22:25:22.183Z,48.70
2018-08-11T22:27:50.590Z,49.20
2018-08-11T22:30:18.683Z,49.20
2018-08-11T22:32:46.779Z,49.20
2018-08-11T22:35:14.858Z,49.20
2018-08-11T22:37:43.314Z,49.20
2018-08-11T22:40:11.390Z,49.20
2018-08-11T22:42:39.715Z,49.20
2018-08-11T22:45:10.127Z,49.20
2018-08-11T22:47:38.737Z,49.90
2018-08-11T22:50:08.571Z,49.20
2018-08-11T22:52:37.015Z,49.30
2018-08-11T22:55:05.682Z,49.20
2018-08-11T22:57:33.770Z,49.30
2018-08-11T23:00:01.859Z,49.20
2018-08-11T23:02:29.942Z,49.20
2018-08-11T23:04:58.023Z,49.30
2018-08-11T23:07:26.114Z,49.20
2018-08-11T23:09:54.195Z,49.20
2018-08-11T23:12:22.310Z,49.30
2018-08-11T23:14:50.387Z,49.20
2018-08-11T23:17:18.487Z,49.20
2018-08-11T23:19:46.570Z,49.20
2018-08-11T23:22:14.911Z,49.20
2018-08-11T23:24:42.998Z,49.30
2018-08-11T23:27:11.088Z,49.30
2018-08-11T23:29:39.178Z,49.30
2018-08-11T23:32:07.279Z,49.30
2018-08-11T23:34:35.370Z,49.30
2018-08-11T23:37:03.459Z,49.30
2018-08-11T23:39:31.662Z,49.30
2018-08-11T23:41:59.761Z,49.20
2018-08-11T23:44:27.854Z,49.30
2018-08-11T23:46:55.959Z,49.30
2018-08-11T23:49:24.264Z,49.30
2018-08-11T23:51:52.342Z,49.30
2018-08-11T23:54:20.434Z,49.20
2018-08-11T23:56:48.522Z,49.90
2018-08-11T23:59:16.655Z,49.30
